Strona główna
METAR-TAF:

METAR-TAF

Lotnisko :

Warsaw Municipal Airport

Warsaw, Indiana, Stany Zjednoczone

Szerokość geograficzna: 41-16-28N, Długość geograficzna: 085-50-24W, wysokość: 259 m

Aktualna obserwacja pogody

Raport powstał 16 minut temu, godzina 20:55 UTC
Wiatr 5 kt od zachód
Temperatura 26°C
Wilgotność 61%
Ciśnienie 1009 hPa
Widzialność: 16.1 km
Rozproszone chmury na wysokości 3500 ft
Rozproszone chmury na wysokości 4700 ft

METAR: KASW 042055Z AUTO 26005KT 10SM SCT035 SCT047 26/18 A2979 RMK AO2

czas: 17:11 (21:11 UTC)


TAF: brakujący

Obserwacja i prognoza pogody dla ponad 4000 lotnisk (raport METAR i TAF).

Dostępne stacje oznaczono żółtymi i czerwonymi punktami na mapie.

Najedź kursorem aby zobaczyć nazwę stacji.

Kliknij aby zobaczyć obserwacje i prognozy pogody.

Aby zmienić mapę: kliknij na zielony przycisk z czarnym krzyżykiem, aby powiększyć; na zielony przycisk z myślnikiem, aby pomniejszyć; na zielone strzałki, aby przejść do map sąsiednich.


METAR-TAF: